Time,TemperatureF,DewpointF,PressureIn,WindDirection,WindDirectionDegrees,WindSpeedMPH,WindSpeedGustMPH,Humidity,HourlyPrecipIn,Conditions,Clouds,dailyrainin,SoftwareType,DateUTC
2013-10-20 00:01:00,57.2,52.1,29.71,WSW,248,0.5,0.5,83,0.00,RA,,0.00,WeatherDisplay:10.37,2013-10-20 04:01:00,
2013-10-20 00:02:00,57.2,52.1,29.71,WSW,248,0.5,0.0,83,0.00,RA,,0.00,WeatherDisplay:10.37,2013-10-20 04:02:00,
2013-10-20 00:07:00,57.2,52.1,29.71,SSE,158,0.7,1.1,83,0.00,RA,,0.00,WeatherDisplay:10.37,2013-10-20 04:07:00,
2013-10-20 00:12:00,57.2,52.4,29.71,South,180,1.8,1.8,84,0.00,CLR,,0.00,WeatherDisplay:10.37,2013-10-20 04:12:00,
2013-10-20 00:17:00,57.2,52.4,29.70,SSE,158,1.1,1.1,84,0.00,CLR,,0.00,WeatherDisplay:10.37,2013-10-20 04:17:00,
2013-10-20 00:22:00,57.4,52.6,29.70,South,180,1.6,1.6,84,0.00,CLR,,0.00,WeatherDisplay:10.37,2013-10-20 04:22:00,
2013-10-20 00:27:00,57.6,52.8,29.69,SW,225,1.8,2.3,84,0.00,CLR,,0.00,WeatherDisplay:10.37,2013-10-20 04:27:00,
2013-10-20 00:32:00,57.7,52.9,29.69,SSW,202,1.1,1.1,84,0.00,CLR,,0.00,WeatherDisplay:10.37,2013-10-20 04:32:00,
2013-10-20 00:37:00,57.9,53.1,29.69,SSW,202,1.1,1.1,84,0.00,CLR,,0.00,WeatherDisplay:10.37,2013-10-20 04:37:00,
2013-10-20 00:42:00,57.9,53.1,29.69,SSW,202,4.0,4.6,84,0.00,CLR,,0.00,WeatherDisplay:10.37,2013-10-20 04:42:00,
2013-10-20 00:47:00,58.1,53.3,29.69,SSE,158,1.1,2.3,84,0.00,CLR,,0.00,WeatherDisplay:10.37,2013-10-20 04:47:00,
2013-10-20 00:52:00,58.1,53.3,29.68,South,180,1.4,1.4,84,0.00,CLR,,0.00,WeatherDisplay:10.37,2013-10-20 04:52:00,
2013-10-20 00:57:00,58.1,53.3,29.69,South,180,1.6,1.6,84,0.00,CLR,,0.00,WeatherDisplay:10.37,2013-10-20 04:57:00,
2013-10-20 01:02:00,58.1,53.3,29.68,SSW,202,2.2,2.3,84,0.00,CLR,,0.00,WeatherDisplay:10.37,2013-10-20 05:02:00,
2013-10-20 01:07:00,58.1,53.6,29.68,South,180,2.4,2.4,85,0.00,CLR,,0.00,WeatherDisplay:10.37,2013-10-20 05:07:00,
2013-10-20 01:12:00,58.1,53.3,29.68,SSW,202,1.1,1.1,84,0.00,CLR,,0.00,WeatherDisplay:10.37,2013-10-20 05:12:00,
2013-10-20 01:17:00,58.1,53.3,29.68,SSW,202,0.2,0.2,84,0.00,CLR,,0.00,WeatherDisplay:10.37,2013-10-20 05:17:00,
2013-10-20 01:22:00,57.9,53.4,29.68,SW,225,0.9,1.1,85,0.00,CLR,,0.00,WeatherDisplay:10.37,2013-10-20 05:22:00,
2013-10-20 01:27:00,57.9,53.1,29.67,SSW,202,3.6,3.6,84,0.00,CLR,,0.00,WeatherDisplay:10.37,2013-10-20 05:27:00,
2013-10-20 01:32:00,57.7,53.3,29.67,SSW,202,1.4,1.4,85,0.00,CLR,,0.00,WeatherDisplay:10.37,2013-10-20 05:32:00,
2013-10-20 01:37:00,57.6,53.1,29.68,SW,225,2.9,2.9,85,0.00,CLR,,0.00,WeatherDisplay:10.37,2013-10-20 05:37:00,
2013-10-20 01:42:00,57.6,53.1,29.67,SSW,202,0.5,1.1,85,0.00,CLR,,0.00,WeatherDisplay:10.37,2013-10-20 05:42:00,
2013-10-20 01:47:00,57.4,52.9,29.67,SSE,158,0.0,1.1,85,0.00,CLR,,0.00,WeatherDisplay:10.37,2013-10-20 05:47:00,
2013-10-20 01:52:00,57.2,52.7,29.67,SSW,202,0.0,0.0,85,0.00,CLR,,0.00,WeatherDisplay:10.37,2013-10-20 05:52:00,
2013-10-20 01:57:00,57.2,52.7,29.67,South,180,0.2,0.0,85,0.00,CLR,,0.00,WeatherDisplay:10.37,2013-10-20 05:57:00,
2013-10-20 02:02:00,57.0,52.6,29.67,SSW,202,0.0,0.0,85,0.00,CLR,,0.00,WeatherDisplay:10.37,2013-10-20 06:02:00,
2013-10-20 02:07:00,56.7,52.2,29.67,SW,225,0.2,1.1,85,0.00,CLR,,0.00,WeatherDisplay:10.37,2013-10-20 06:07:00,
2013-10-20 02:12:00,56.5,52.0,29.67,WSW,248,0.0,0.0,85,0.00,CLR,,0.00,WeatherDisplay:10.37,2013-10-20 06:12:00,
2013-10-20 02:17:00,56.5,51.7,29.67,SW,225,1.1,1.1,84,0.00,CLR,,0.00,WeatherDisplay:10.37,2013-10-20 06:17:00,
2013-10-20 02:22:00,56.5,51.7,29.67,SSW,202,0.2,0.2,84,0.00,CLR,,0.00,WeatherDisplay:10.37,2013-10-20 06:22:00,
2013-10-20 02:27:00,56.3,51.5,29.67,SSW,202,0.7,0.7,84,0.00,CLR,,0.00,WeatherDisplay:10.37,2013-10-20 06:27:00,
2013-10-20 02:32:00,56.5,51.7,29.66,WSW,248,0.0,1.1,84,0.00,CLR,,0.00,WeatherDisplay:10.37,2013-10-20 06:32:00,
2013-10-20 02:37:00,56.5,51.7,29.66,SW,225,0.0,0.0,84,0.00,CLR,,0.00,WeatherDisplay:10.37,2013-10-20 06:37:00,
2013-10-20 02:42:00,56.5,51.7,29.66,SW,225,0.7,1.1,84,0.00,CLR,,0.00,WeatherDisplay:10.37,2013-10-20 06:42:00,
2013-10-20 02:47:00,56.5,51.7,29.66,SSW,202,0.5,0.5,84,0.00,CLR,,0.00,WeatherDisplay:10.37,2013-10-20 06:47:00,
2013-10-20 02:52:00,56.5,51.7,29.66,SSW,202,0.5,0.5,84,0.00,CLR,,0.00,WeatherDisplay:10.37,2013-10-20 06:52:00,
2013-10-20 02:57:00,56.7,51.9,29.65,SSW,202,1.1,3.5,84,0.00,CLR,,0.00,WeatherDisplay:10.37,2013-10-20 06:57:00,
2013-10-20 03:02:00,57.0,52.2,29.66,SSW,202,0.7,1.1,84,0.00,CLR,,0.00,WeatherDisplay:10.37,2013-10-20 07:02:00,
2013-10-20 03:07:00,57.0,52.2,29.66,WSW,248,2.9,2.9,84,0.00,CLR,,0.00,WeatherDisplay:10.37,2013-10-20 07:07:00,
2013-10-20 03:12:00,57.2,52.4,29.65,SSW,202,0.0,0.0,84,0.00,CLR,,0.00,WeatherDisplay:10.37,2013-10-20 07:12:00,
2013-10-20 03:17:00,57.2,52.4,29.65,WSW,248,0.2,0.2,84,0.00,CLR,,0.00,WeatherDisplay:10.37,2013-10-20 07:17:00,
2013-10-20 03:22:00,57.4,52.9,29.65,SSW,202,2.0,2.3,85,0.00,CLR,,0.00,WeatherDisplay:10.37,2013-10-20 07:22:00,
2013-10-20 03:27:00,57.6,53.1,29.65,SSW,202,0.5,0.5,85,0.00,CLR,,0.00,WeatherDisplay:10.37,2013-10-20 07:27:00,
2013-10-20 03:32:00,57.7,53.3,29.65,SSE,158,0.2,1.1,85,0.00,CLR,,0.00,WeatherDisplay:10.37,2013-10-20 07:32:00,
2013-10-20 03:37:00,57.7,53.3,29.65,South,180,0.9,0.9,85,0.00,CLR,,0.00,WeatherDisplay:10.37,2013-10-20 07:37:00,
2013-10-20 03:42:00,57.9,53.4,29.65,SW,225,1.6,1.6,85,0.00,CLR,,0.00,WeatherDisplay:10.37,2013-10-20 07:42:00,
2013-10-20 03:47:00,58.1,53.6,29.65,SSW,202,1.8,1.8,85,0.00,CLR,,0.00,WeatherDisplay:10.37,2013-10-20 07:47:00,
2013-10-20 03:52:00,58.3,53.8,29.65,SSE,158,1.1,1.1,85,0.00,CLR,,0.00,WeatherDisplay:10.37,2013-10-20 07:52:00,
2013-10-20 03:57:00,58.3,53.8,29.65,SW,225,0.5,0.5,85,0.00,CLR,,0.00,WeatherDisplay:10.37,2013-10-20 07:57:00,
2013-10-20 04:02:00,58.3,53.8,29.65,WSW,248,0.0,0.0,85,0.00,CLR,,0.00,WeatherDisplay:10.37,2013-10-20 08:02:00,
2013-10-20 04:07:00,58.3,53.8,29.65,SSW,202,1.4,1.4,85,0.00,CLR,,0.00,WeatherDisplay:10.37,2013-10-20 08:07:00,
2013-10-20 04:12:00,58.5,54.0,29.65,SSW,202,0.5,0.5,85,0.00,CLR,,0.00,WeatherDisplay:10.37,2013-10-20 08:12:00,
2013-10-20 04:17:00,58.5,54.0,29.65,SSW,202,0.0,0.0,85,0.00,CLR,,0.00,WeatherDisplay:10.37,2013-10-20 08:17:00,
2013-10-20 04:22:00,58.5,54.0,29.65,SSE,158,0.0,0.0,85,0.00,CLR,,0.00,WeatherDisplay:10.37,2013-10-20 08:22:00,
2013-10-20 04:27:00,58.5,54.0,29.65,South,180,0.0,0.0,85,0.00,CLR,,0.00,WeatherDisplay:10.37,2013-10-20 08:27:00,
2013-10-20 04:32:00,58.5,54.0,29.65,SSW,202,0.0,0.0,85,0.00,CLR,,0.00,WeatherDisplay:10.37,2013-10-20 08:32:00,
2013-10-20 04:37:00,58.5,54.0,29.65,SSW,202,0.9,1.1,85,0.00,CLR,,0.00,WeatherDisplay:10.37,2013-10-20 08:37:00,
2013-10-20 04:42:00,58.5,54.0,29.65,SSW,202,0.9,0.9,85,0.00,CLR,,0.00,WeatherDisplay:10.37,2013-10-20 08:42:00,
2013-10-20 04:47:00,58.5,54.0,29.65,SSW,202,0.0,1.1,85,0.00,CLR,,0.00,WeatherDisplay:10.37,2013-10-20 08:47:00,
2013-10-20 04:52:00,58.5,54.0,29.65,SW,225,0.5,1.1,85,0.00,CLR,,0.00,WeatherDisplay:10.37,2013-10-20 08:52:00,
2013-10-20 04:57:00,58.5,54.0,29.65,SSW,202,0.5,0.5,85,0.00,CLR,,0.00,WeatherDisplay:10.37,2013-10-20 08:57:00,
2013-10-20 05:02:00,58.5,54.0,29.65,SW,225,0.2,0.2,85,0.00,CLR,,0.00,WeatherDisplay:10.37,2013-10-20 09:02:00,
2013-10-20 05:07:00,58.5,54.0,29.66,SSW,202,0.0,0.0,85,0.00,CLR,,0.00,WeatherDisplay:10.37,2013-10-20 09:07:00,
2013-10-20 05:12:00,58.5,54.0,29.66,SSW,202,0.0,0.0,85,0.00,CLR,,0.00,WeatherDisplay:10.37,2013-10-20 09:12:00,
2013-10-20 05:17:00,58.3,53.8,29.66,SSE,158,0.0,0.0,85,0.00,CLR,,0.00,WeatherDisplay:10.37,2013-10-20 09:17:00,
2013-10-20 05:22:00,58.3,53.8,29.66,SSE,158,0.0,0.0,85,0.00,CLR,,0.00,WeatherDisplay:10.37,2013-10-20 09:22:00,
2013-10-20 05:27:00,58.3,53.8,29.66,SSE,158,0.0,0.0,85,0.00,CLR,,0.00,WeatherDisplay:10.37,2013-10-20 09:27:00,
2013-10-20 05:32:00,58.1,53.6,29.66,SSW,202,0.0,0.0,85,0.00,CLR,,0.00,WeatherDisplay:10.37,2013-10-20 09:32:00,
2013-10-20 05:37:00,58.1,53.6,29.66,SSW,202,0.0,0.0,85,0.00,CLR,,0.00,WeatherDisplay:10.37,2013-10-20 09:37:00,
2013-10-20 05:42:00,58.1,53.6,29.66,SSW,202,0.0,0.0,85,0.00,CLR,,0.00,WeatherDisplay:10.37,2013-10-20 09:42:00,
2013-10-20 05:47:00,57.9,53.4,29.66,SSW,202,0.0,0.0,85,0.00,CLR,,0.00,WeatherDisplay:10.37,2013-10-20 09:47:00,
2013-10-20 05:52:00,57.9,53.4,29.66,SSW,202,0.0,0.0,85,0.00,CLR,,0.00,WeatherDisplay:10.37,2013-10-20 09:52:00,
2013-10-20 05:57:00,57.9,53.4,29.66,NNE,22,0.0,0.0,85,0.00,CLR,,0.00,WeatherDisplay:10.37,2013-10-20 09:57:00,
2013-10-20 06:02:00,57.7,53.3,29.66,NE,45,0.0,0.0,85,0.00,CLR,,0.00,WeatherDisplay:10.37,2013-10-20 10:02:00,
2013-10-20 06:07:00,57.6,53.1,29.67,East,90,0.0,0.0,85,0.00,CLR,,0.00,WeatherDisplay:10.37,2013-10-20 10:07:00,
2013-10-20 06:12:00,57.6,53.1,29.67,North,0,0.0,0.0,85,0.00,CLR,,0.00,WeatherDisplay:10.37,2013-10-20 10:12:00,
2013-10-20 06:17:00,57.4,52.6,29.67,ENE,68,0.0,0.0,84,0.00,CLR,,0.00,WeatherDisplay:10.37,2013-10-20 10:17:00,
2013-10-20 06:22:00,57.2,52.4,29.67,ENE,68,0.0,0.0,84,0.00,CLR,,0.00,WeatherDisplay:10.37,2013-10-20 10:22:00,
2013-10-20 06:27:00,56.8,52.1,29.67,South,180,0.0,1.1,84,0.00,CLR,,0.00,WeatherDisplay:10.37,2013-10-20 10:27:00,
2013-10-20 06:32:00,56.8,52.1,29.67,South,180,0.0,0.0,84,0.00,CLR,,0.00,WeatherDisplay:10.37,2013-10-20 10:32:00,
2013-10-20 06:37:00,56.5,51.7,29.67,South,180,0.0,0.0,84,0.00,CLR,,0.00,WeatherDisplay:10.37,2013-10-20 10:37:00,
2013-10-20 06:42:00,56.5,51.7,29.67,South,180,0.0,0.0,84,0.00,CLR,,0.00,WeatherDisplay:10.37,2013-10-20 10:42:00,
2013-10-20 06:47:00,56.1,51.4,29.68,South,180,0.0,0.0,84,0.00,CLR,,0.00,WeatherDisplay:10.37,2013-10-20 10:47:00,
2013-10-20 06:52:00,55.8,51.0,29.68,South,180,0.2,0.2,84,0.00,CLR,,0.00,WeatherDisplay:10.37,2013-10-20 10:52:00,
2013-10-20 06:57:00,55.8,51.0,29.68,South,180,0.0,0.0,84,0.00,CLR,,0.00,WeatherDisplay:10.37,2013-10-20 10:57:00,
2013-10-20 07:02:00,55.6,50.8,29.68,South,180,0.0,0.0,84,0.00,CLR,,0.00,WeatherDisplay:10.37,2013-10-20 11:02:00,
2013-10-20 07:07:00,55.2,50.5,29.69,SW,225,0.0,0.0,84,0.00,CLR,,0.00,WeatherDisplay:10.37,2013-10-20 11:07:00,
2013-10-20 07:12:00,55.2,50.8,29.69,SSE,158,0.0,0.0,85,0.00,CLR,,0.00,WeatherDisplay:10.37,2013-10-20 11:12:00,
2013-10-20 07:17:00,55.0,50.6,29.69,South,180,0.0,0.0,85,0.00,CLR,,0.00,WeatherDisplay:10.37,2013-10-20 11:17:00,
2013-10-20 07:22:00,54.9,50.4,29.69,South,180,0.0,0.0,85,0.00,CLR,,0.00,WeatherDisplay:10.37,2013-10-20 11:22:00,
2013-10-20 07:27:00,54.9,50.4,29.69,South,180,0.0,0.0,85,0.00,CLR,,0.00,WeatherDisplay:10.37,2013-10-20 11:27:00,
2013-10-20 07:32:00,54.9,50.4,29.70,South,180,0.5,0.5,85,0.00,CLR,,0.00,WeatherDisplay:10.37,2013-10-20 11:32:00,
2013-10-20 07:37:00,54.9,50.4,29.70,South,180,0.0,0.0,85,0.00,CLR,,0.00,WeatherDisplay:10.37,2013-10-20 11:37:00,
2013-10-20 07:42:00,54.9,50.4,29.70,South,180,0.0,0.0,85,0.00,CLR,,0.00,WeatherDisplay:10.37,2013-10-20 11:42:00,
2013-10-20 07:47:00,54.7,50.3,29.70,SSW,202,0.2,0.2,85,0.00,CLR,,0.00,WeatherDisplay:10.37,2013-10-20 11:47:00,
2013-10-20 07:52:00,54.9,50.4,29.71,NW,315,0.0,1.1,85,0.00,CLR,,0.00,WeatherDisplay:10.37,2013-10-20 11:52:00,
2013-10-20 07:57:00,54.9,50.4,29.71,WSW,248,0.2,0.2,85,0.00,CLR,,0.00,WeatherDisplay:10.37,2013-10-20 11:57:00,
2013-10-20 08:02:00,55.0,50.3,29.71,SSW,202,0.0,0.0,84,0.00,CLR,,0.00,WeatherDisplay:10.37,2013-10-20 12:02:00,
2013-10-20 08:07:00,55.2,50.5,29.71,NW,315,0.7,2.3,84,0.00,CLR,,0.00,WeatherDisplay:10.37,2013-10-20 12:07:00,
2013-10-20 08:12:00,55.4,50.6,29.72,NW,315,0.7,1.1,84,0.00,CLR,,0.00,WeatherDisplay:10.37,2013-10-20 12:12:00,
2013-10-20 08:17:00,55.6,50.8,29.72,SSW,202,0.0,0.0,84,0.00,CLR,,0.00,WeatherDisplay:10.37,2013-10-20 12:17:00,
2013-10-20 08:22:00,55.6,50.5,29.72,WSW,248,0.5,0.5,83,0.00,CLR,,0.00,WeatherDisplay:10.37,2013-10-20 12:22:00,
2013-10-20 08:27:00,55.8,50.7,29.72,North,0,0.9,1.1,83,0.00,CLR,,0.00,WeatherDisplay:10.37,2013-10-20 12:27:00,
2013-10-20 08:32:00,55.9,50.9,29.73,NNW,338,0.5,0.5,83,0.01,RA,,0.01,WeatherDisplay:10.37,2013-10-20 12:32:00,
2013-10-20 08:37:00,56.1,50.7,29.73,SSW,202,0.0,1.1,82,0.01,RA,,0.01,WeatherDisplay:10.37,2013-10-20 12:37:00,
2013-10-20 08:42:00,56.1,50.7,29.73,East,90,2.9,2.9,82,0.01,CLR,,0.01,WeatherDisplay:10.37,2013-10-20 12:42:00,
2013-10-20 08:47:00,56.3,50.5,29.73,South,180,0.2,2.3,81,0.01,CLR,,0.01,WeatherDisplay:10.37,2013-10-20 12:47:00,
2013-10-20 08:52:00,56.5,50.7,29.74,SW,225,0.5,0.5,81,0.01,CLR,,0.01,WeatherDisplay:10.37,2013-10-20 12:52:00,
2013-10-20 08:57:00,56.5,50.7,29.74,WSW,248,0.9,0.0,81,0.01,CLR,,0.01,WeatherDisplay:10.37,2013-10-20 12:57:00,
2013-10-20 09:02:00,56.7,50.9,29.74,SSW,202,0.5,1.1,81,0.01,CLR,,0.01,WeatherDisplay:10.37,2013-10-20 13:02:00,
2013-10-20 09:07:00,56.7,50.2,29.74,West,270,1.1,1.1,79,0.01,CLR,,0.01,WeatherDisplay:10.37,2013-10-20 13:07:00,
2013-10-20 09:12:00,57.0,50.6,29.74,SSE,158,1.6,1.6,79,0.01,CLR,,0.01,WeatherDisplay:10.37,2013-10-20 13:12:00,
2013-10-20 09:17:00,57.2,49.7,29.75,WNW,292,0.9,0.9,76,0.01,CLR,,0.01,WeatherDisplay:10.37,2013-10-20 13:17:00,
2013-10-20 09:22:00,57.2,50.4,29.75,SSW,202,0.2,0.2,78,0.01,CLR,,0.01,WeatherDisplay:10.37,2013-10-20 13:22:00,
2013-10-20 09:27:00,57.4,49.5,29.75,WSW,248,1.1,1.1,75,0.01,CLR,,0.01,WeatherDisplay:10.37,2013-10-20 13:27:00,
2013-10-20 09:32:00,57.6,47.1,29.75,NNE,22,0.9,1.1,68,0.00,CLR,,0.01,WeatherDisplay:10.37,2013-10-20 13:32:00,
2013-10-20 09:37:00,57.6,47.1,29.75,SW,225,1.6,1.6,68,0.00,CLR,,0.01,WeatherDisplay:10.37,2013-10-20 13:37:00,
2013-10-20 09:42:00,57.6,45.9,29.76,SE,135,1.8,2.3,65,0.00,CLR,,0.01,WeatherDisplay:10.37,2013-10-20 13:42:00,
2013-10-20 09:47:00,57.6,45.9,29.76,SW,225,0.5,1.1,65,0.00,CLR,,0.01,WeatherDisplay:10.37,2013-10-20 13:47:00,
2013-10-20 09:52:00,57.7,43.5,29.76,WNW,292,2.6,4.6,59,0.00,CLR,,0.01,WeatherDisplay:10.37,2013-10-20 13:52:00,
2013-10-20 09:57:00,57.7,43.9,29.76,NE,45,2.2,2.3,60,0.00,CLR,,0.01,WeatherDisplay:10.37,2013-10-20 13:57:00,
2013-10-20 10:02:00,57.9,43.7,29.76,SSW,202,1.1,1.1,59,0.00,CLR,,0.01,WeatherDisplay:10.37,2013-10-20 14:02:00,
2013-10-20 10:07:00,57.9,43.2,29.76,SE,135,0.9,1.1,58,0.00,CLR,,0.01,WeatherDisplay:10.37,2013-10-20 14:07:00,
2013-10-20 10:12:00,58.1,44.7,29.76,ENE,68,0.7,1.1,61,0.00,CLR,,0.01,WeatherDisplay:10.37,2013-10-20 14:12:00,
2013-10-20 10:17:00,58.3,44.9,29.76,South,180,1.4,0.0,61,0.00,CLR,,0.01,WeatherDisplay:10.37,2013-10-20 14:17:00,
2013-10-20 10:22:00,58.6,45.2,29.76,WSW,248,3.8,3.8,61,0.00,CLR,,0.01,WeatherDisplay:10.37,2013-10-20 14:22:00,
2013-10-20 10:27:00,58.6,45.2,29.77,WNW,292,1.4,1.4,61,0.00,CLR,,0.01,WeatherDisplay:10.37,2013-10-20 14:27:00,
2013-10-20 10:32:00,58.8,45.8,29.77,SSW,202,0.7,1.1,62,0.00,CLR,,0.01,WeatherDisplay:10.37,2013-10-20 14:32:00,
2013-10-20 10:37:00,59.0,46.4,29.77,SSW,202,0.2,0.0,63,0.00,CLR,,0.01,WeatherDisplay:10.37,2013-10-20 14:37:00,
2013-10-20 10:42:00,59.4,45.9,29.77,North,0,1.1,2.3,61,0.00,CLR,,0.01,WeatherDisplay:10.37,2013-10-20 14:42:00,
2013-10-20 10:47:00,59.7,46.2,29.77,NNE,22,2.2,2.3,61,0.00,CLR,,0.01,WeatherDisplay:10.37,2013-10-20 14:47:00,
2013-10-20 10:52:00,59.9,46.4,29.77,South,180,1.1,2.3,61,0.00,CLR,,0.01,WeatherDisplay:10.37,2013-10-20 14:52:00,
2013-10-20 10:57:00,59.9,44.6,29.77,WNW,292,0.9,1.1,57,0.00,CLR,,0.01,WeatherDisplay:10.37,2013-10-20 14:57:00,
2013-10-20 11:02:00,60.1,44.8,29.77,SSW,202,2.6,2.6,57,0.00,CLR,,0.01,WeatherDisplay:10.37,2013-10-20 15:02:00,
2013-10-20 11:07:00,60.3,45.0,29.77,SE,135,0.2,0.2,57,0.00,CLR,,0.01,WeatherDisplay:10.37,2013-10-20 15:07:00,
2013-10-20 11:12:00,60.4,44.7,29.77,NW,315,4.3,4.3,56,0.00,CLR,,0.01,WeatherDisplay:10.37,2013-10-20 15:12:00,
2013-10-20 11:17:00,60.8,44.0,29.77,NE,45,1.1,4.6,54,0.00,CLR,,0.01,WeatherDisplay:10.37,2013-10-20 15:17:00,
2013-10-20 11:22:00,61.0,45.2,29.78,SE,135,0.5,0.0,56,0.00,CLR,,0.01,WeatherDisplay:10.37,2013-10-20 15:22:00,
2013-10-20 11:27:00,61.3,44.5,29.77,South,180,1.1,1.1,54,0.00,CLR,,0.01,WeatherDisplay:10.37,2013-10-20 15:27:00,
2013-10-20 11:32:00,61.5,44.2,29.78,SW,225,2.6,2.6,53,0.00,CLR,,0.01,WeatherDisplay:10.37,2013-10-20 15:32:00,
2013-10-20 11:37:00,61.5,44.7,29.78,NNE,22,1.4,1.4,54,0.00,CLR,,0.01,WeatherDisplay:10.37,2013-10-20 15:37:00,
2013-10-20 11:42:00,61.5,43.7,29.78,NNW,338,1.1,1.1,52,0.00,CLR,,0.01,WeatherDisplay:10.37,2013-10-20 15:42:00,
2013-10-20 11:47:00,61.7,43.9,29.78,South,180,0.7,1.1,52,0.00,CLR,,0.01,WeatherDisplay:10.37,2013-10-20 15:47:00,
2013-10-20 11:52:00,61.9,44.6,29.78,ENE,68,2.0,2.3,53,0.00,CLR,,0.01,WeatherDisplay:10.37,2013-10-20 15:52:00,
2013-10-20 11:57:00,62.4,46.0,29.78,SW,225,2.4,2.4,55,0.00,CLR,,0.01,WeatherDisplay:10.37,2013-10-20 15:57:00,
2013-10-20 12:02:00,62.6,45.2,29.78,NW,315,3.8,3.8,53,0.00,CLR,,0.01,WeatherDisplay:10.37,2013-10-20 16:02:00,
2013-10-20 12:07:00,62.8,44.4,29.78,SSE,158,1.4,1.4,51,0.00,CLR,,0.01,WeatherDisplay:10.37,2013-10-20 16:07:00,
2013-10-20 12:12:00,62.8,43.9,29.78,SSE,158,1.1,1.1,50,0.00,CLR,,0.01,WeatherDisplay:10.37,2013-10-20 16:12:00,
2013-10-20 12:17:00,62.6,40.9,29.78,South,180,1.1,1.1,45,0.00,CLR,,0.01,WeatherDisplay:10.37,2013-10-20 16:17:00,
2013-10-20 12:22:00,62.4,42.5,29.78,NW,315,1.1,2.3,48,0.00,CLR,,0.01,WeatherDisplay:10.37,2013-10-20 16:22:00,
2013-10-20 12:27:00,62.6,43.2,29.78,NNW,338,0.5,1.1,49,0.00,CLR,,0.01,WeatherDisplay:10.37,2013-10-20 16:27:00,
2013-10-20 12:32:00,62.8,42.8,29.78,NNE,22,1.4,1.4,48,0.00,CLR,,0.01,WeatherDisplay:10.37,2013-10-20 16:32:00,
2013-10-20 12:36:00,63.0,42.4,29.78,SSW,202,2.0,2.3,47,0.00,CLR,,0.01,WeatherDisplay:10.37,2013-10-20 16:36:00,
2013-10-20 12:41:00,63.1,43.7,29.78,ESE,112,1.1,1.1,49,0.00,CLR,,0.01,WeatherDisplay:10.37,2013-10-20 16:41:00,
2013-10-20 12:46:00,63.7,44.2,29.78,WNW,292,1.1,1.1,49,0.00,CLR,,0.01,WeatherDisplay:10.37,2013-10-20 16:46:00,
2013-10-20 12:51:00,64.0,43.9,29.78,NNW,338,0.5,0.5,48,0.00,CLR,,0.01,WeatherDisplay:10.37,2013-10-20 16:51:00,
2013-10-20 12:56:00,64.0,44.5,29.78,WNW,292,0.5,1.1,49,0.00,CLR,,0.01,WeatherDisplay:10.37,2013-10-20 16:56:00,
2013-10-20 13:01:00,64.0,45.0,29.78,WNW,292,1.1,1.1,50,0.00,CLR,,0.01,WeatherDisplay:10.37,2013-10-20 17:01:00,
2013-10-20 13:06:00,64.2,44.6,29.78,WSW,248,3.1,3.5,49,0.00,CLR,,0.01,WeatherDisplay:10.37,2013-10-20 17:06:00,
2013-10-20 13:11:00,64.2,44.6,29.78,SSW,202,2.2,2.3,49,0.00,CLR,,0.01,WeatherDisplay:10.37,2013-10-20 17:11:00,
2013-10-20 13:16:00,64.4,44.3,29.78,SW,225,2.6,2.6,48,0.00,CLR,,0.01,WeatherDisplay:10.37,2013-10-20 17:16:00,
2013-10-20 13:21:00,64.4,44.8,29.78,SW,225,2.0,2.3,49,0.00,CLR,,0.01,WeatherDisplay:10.37,2013-10-20 17:21:00,
2013-10-20 13:26:00,64.6,45.0,29.78,East,90,0.5,0.5,49,0.00,CLR,,0.01,WeatherDisplay:10.37,2013-10-20 17:26:00,
2013-10-20 13:31:00,64.8,44.6,29.78,SSW,202,0.5,0.0,48,0.00,CLR,,0.01,WeatherDisplay:10.37,2013-10-20 17:31:00,
2013-10-20 13:36:00,64.8,42.9,29.78,North,0,1.1,1.1,45,0.00,CLR,,0.01,WeatherDisplay:10.37,2013-10-20 17:36:00,
2013-10-20 13:41:00,64.6,43.3,29.79,SW,225,0.7,1.1,46,0.00,CLR,,0.01,WeatherDisplay:10.37,2013-10-20 17:41:00,
2013-10-20 13:46:00,64.6,43.3,29.78,SW,225,0.7,2.3,46,0.00,CLR,,0.01,WeatherDisplay:10.37,2013-10-20 17:46:00,
2013-10-20 13:51:00,64.6,42.7,29.78,SW,225,0.0,0.0,45,0.00,CLR,,0.01,WeatherDisplay:10.37,2013-10-20 17:51:00,
2013-10-20 13:56:00,64.4,41.4,29.78,NNW,338,1.1,1.1,43,0.00,CLR,,0.01,WeatherDisplay:10.37,2013-10-20 17:56:00,
2013-10-20 14:01:00,64.2,42.4,29.78,SSW,202,1.8,2.3,45,0.00,CLR,,0.01,WeatherDisplay:10.37,2013-10-20 18:01:00,
2013-10-20 14:06:00,64.4,42.6,29.78,SE,135,1.8,2.3,45,0.00,CLR,,0.01,WeatherDisplay:10.37,2013-10-20 18:06:00,
2013-10-20 14:11:00,64.4,42.0,29.78,WNW,292,1.4,1.4,44,0.00,CLR,,0.01,WeatherDisplay:10.37,2013-10-20 18:11:00,
2013-10-20 14:16:00,64.4,42.6,29.78,West,270,0.2,1.1,45,0.00,CLR,,0.01,WeatherDisplay:10.37,2013-10-20 18:16:00,
2013-10-20 14:21:00,64.6,43.3,29.78,South,180,0.5,1.1,46,0.00,CLR,,0.01,WeatherDisplay:10.37,2013-10-20 18:21:00,
2013-10-20 14:26:00,64.8,43.5,29.78,SSW,202,1.1,1.1,46,0.00,CLR,,0.01,WeatherDisplay:10.37,2013-10-20 18:26:00,
2013-10-20 14:31:00,64.9,43.1,29.78,West,270,0.2,1.1,45,0.00,CLR,,0.01,WeatherDisplay:10.37,2013-10-20 18:31:00,
2013-10-20 14:36:00,64.9,42.5,29.79,NE,45,1.1,1.1,44,0.00,CLR,,0.01,WeatherDisplay:10.37,2013-10-20 18:36:00,
2013-10-20 14:41:00,64.4,40.8,29.78,SW,225,0.9,2.3,42,0.00,CLR,,0.01,WeatherDisplay:10.37,2013-10-20 18:41:00,
2013-10-20 14:46:00,64.2,41.8,29.79,SW,225,0.2,0.2,44,0.00,CLR,,0.01,WeatherDisplay:10.37,2013-10-20 18:46:00,
2013-10-20 14:51:00,64.0,41.7,29.79,East,90,0.9,1.1,44,0.00,CLR,,0.01,WeatherDisplay:10.37,2013-10-20 18:51:00,
2013-10-20 14:56:00,63.9,42.1,29.79,SSW,202,1.4,1.4,45,0.00,CLR,,0.01,WeatherDisplay:10.37,2013-10-20 18:56:00,
2013-10-20 15:01:00,63.7,42.5,29.79,WSW,248,1.4,1.4,46,0.00,CLR,,0.01,WeatherDisplay:10.37,2013-10-20 19:01:00,
2013-10-20 15:06:00,63.5,42.3,29.80,South,180,0.2,1.1,46,0.00,CLR,,0.01,WeatherDisplay:10.37,2013-10-20 19:06:00,
2013-10-20 15:11:00,63.3,41.6,29.79,WNW,292,0.5,0.5,45,0.00,CLR,,0.01,WeatherDisplay:10.37,2013-10-20 19:11:00,
2013-10-20 15:16:00,63.0,41.8,29.80,ENE,68,1.8,2.3,46,0.00,CLR,,0.01,WeatherDisplay:10.37,2013-10-20 19:16:00,
2013-10-20 15:21:00,62.6,42.1,29.80,NW,315,1.8,2.3,47,0.00,CLR,,0.01,WeatherDisplay:10.37,2013-10-20 19:21:00,
2013-10-20 15:26:00,62.4,41.4,29.80,South,180,2.0,2.3,46,0.00,CLR,,0.01,WeatherDisplay:10.37,2013-10-20 19:26:00,
2013-10-20 15:31:00,62.2,42.3,29.80,SW,225,0.7,1.1,48,0.00,CLR,,0.01,WeatherDisplay:10.37,2013-10-20 19:31:00,
2013-10-20 15:36:00,62.2,41.7,29.80,NNW,338,0.2,1.1,47,0.00,CLR,,0.01,WeatherDisplay:10.37,2013-10-20 19:36:00,
2013-10-20 15:41:00,62.2,42.3,29.80,North,0,0.5,0.5,48,0.00,CLR,,0.01,WeatherDisplay:10.37,2013-10-20 19:41:00,
2013-10-20 15:46:00,62.1,41.6,29.80,WNW,292,0.0,0.0,47,0.00,CLR,,0.01,WeatherDisplay:10.37,2013-10-20 19:46:00,
2013-10-20 15:51:00,61.9,42.0,29.80,South,180,0.7,1.1,48,0.00,CLR,,0.01,WeatherDisplay:10.37,2013-10-20 19:51:00,
2013-10-20 15:56:00,61.9,42.0,29.80,NW,315,0.5,0.0,48,0.00,CLR,,0.01,WeatherDisplay:10.37,2013-10-20 19:56:00,
2013-10-20 16:01:00,61.5,41.6,29.80,SSW,202,0.5,0.5,48,0.00,CLR,,0.01,WeatherDisplay:10.37,2013-10-20 20:01:00,
2013-10-20 16:06:00,61.3,40.9,29.81,North,0,0.5,0.5,47,0.00,CLR,,0.01,WeatherDisplay:10.37,2013-10-20 20:06:00,
2013-10-20 16:11:00,61.2,41.8,29.81,SE,135,0.5,0.5,49,0.00,CLR,,0.01,WeatherDisplay:10.37,2013-10-20 20:11:00,
2013-10-20 16:16:00,61.2,41.8,29.81,West,270,0.0,0.0,49,0.00,CLR,,0.01,WeatherDisplay:10.37,2013-10-20 20:16:00,
2013-10-20 16:21:00,61.0,41.7,29.81,North,0,0.5,0.5,49,0.00,CLR,,0.01,WeatherDisplay:10.37,2013-10-20 20:21:00,
2013-10-20 16:26:00,60.6,42.4,29.81,South,180,0.5,0.5,51,0.00,CLR,,0.01,WeatherDisplay:10.37,2013-10-20 20:26:00,
2013-10-20 16:31:00,60.4,42.2,29.82,SSW,202,0.5,0.5,51,0.00,CLR,,0.01,WeatherDisplay:10.37,2013-10-20 20:31:00,
2013-10-20 16:36:00,60.3,42.0,29.82,North,0,1.1,1.1,51,0.00,CLR,,0.01,WeatherDisplay:10.37,2013-10-20 20:36:00,
2013-10-20 16:41:00,60.1,41.9,29.82,SSW,202,1.6,1.6,51,0.00,CLR,,0.01,WeatherDisplay:10.37,2013-10-20 20:41:00,
2013-10-20 16:46:00,60.1,42.4,29.82,SSW,202,1.6,1.6,52,0.00,CLR,,0.01,WeatherDisplay:10.37,2013-10-20 20:46:00,
2013-10-20 16:51:00,59.7,41.6,29.82,SW,225,0.5,2.3,51,0.00,CLR,,0.01,WeatherDisplay:10.37,2013-10-20 20:51:00,
2013-10-20 16:56:00,59.5,41.9,29.83,SW,225,1.1,1.1,52,0.00,CLR,,0.01,WeatherDisplay:10.37,2013-10-20 20:56:00,
2013-10-20 17:01:00,59.4,41.2,29.83,South,180,0.5,0.5,51,0.00,CLR,,0.01,WeatherDisplay:10.37,2013-10-20 21:01:00,
2013-10-20 17:06:00,59.2,41.6,29.83,SSW,202,0.7,1.1,52,0.00,CLR,,0.01,WeatherDisplay:10.37,2013-10-20 21:06:00,
2013-10-20 17:11:00,58.8,41.2,29.83,SW,225,0.5,3.5,52,0.00,CLR,,0.01,WeatherDisplay:10.37,2013-10-20 21:11:00,
2013-10-20 17:16:00,58.6,41.5,29.83,SSE,158,0.2,0.2,53,0.00,CLR,,0.01,WeatherDisplay:10.37,2013-10-20 21:16:00,
2013-10-20 17:21:00,58.5,41.9,29.83,SSW,202,0.9,1.1,54,0.00,CLR,,0.01,WeatherDisplay:10.37,2013-10-20 21:21:00,
2013-10-20 17:26:00,58.1,41.5,29.83,SSW,202,0.5,0.5,54,0.00,CLR,,0.01,WeatherDisplay:10.37,2013-10-20 21:26:00,
2013-10-20 17:31:00,57.9,41.8,29.83,SSW,202,0.9,1.1,55,0.00,CLR,,0.01,WeatherDisplay:10.37,2013-10-20 21:31:00,
2013-10-20 17:36:00,57.7,42.1,29.84,South,180,0.5,0.5,56,0.00,CLR,,0.01,WeatherDisplay:10.37,2013-10-20 21:36:00,
2013-10-20 17:41:00,57.2,41.6,29.84,SSW,202,0.0,0.0,56,0.00,CLR,,0.01,WeatherDisplay:10.37,2013-10-20 21:41:00,
2013-10-20 17:46:00,57.0,41.9,29.84,SSW,202,0.0,0.0,57,0.00,CLR,,0.01,WeatherDisplay:10.37,2013-10-20 21:46:00,
2013-10-20 17:51:00,56.8,41.8,29.85,SSW,202,0.0,0.0,57,0.00,CLR,,0.01,WeatherDisplay:10.37,2013-10-20 21:51:00,
2013-10-20 17:56:00,56.7,42.0,29.85,SSW,202,0.0,0.0,58,0.00,CLR,,0.01,WeatherDisplay:10.37,2013-10-20 21:56:00,
2013-10-20 18:01:00,55.9,41.8,29.85,SSW,202,0.0,0.0,59,0.00,CLR,,0.01,WeatherDisplay:10.37,2013-10-20 22:01:00,
2013-10-20 18:06:00,55.8,41.6,29.85,SSW,202,0.0,0.0,59,0.00,CLR,,0.01,WeatherDisplay:10.37,2013-10-20 22:06:00,
2013-10-20 18:11:00,55.4,41.7,29.85,SSW,202,0.0,0.0,60,0.00,CLR,,0.01,WeatherDisplay:10.37,2013-10-20 22:11:00,
2013-10-20 18:16:00,55.2,41.6,29.86,SSW,202,0.0,0.0,60,0.00,CLR,,0.01,WeatherDisplay:10.37,2013-10-20 22:16:00,
2013-10-20 18:21:00,54.7,41.5,29.86,SSW,202,0.0,0.0,61,0.00,CLR,,0.01,WeatherDisplay:10.37,2013-10-20 22:21:00,
2013-10-20 18:26:00,54.5,41.7,29.87,SSW,202,0.0,0.0,62,0.00,CLR,,0.01,WeatherDisplay:10.37,2013-10-20 22:26:00,
2013-10-20 18:31:00,54.3,42.0,29.87,SSW,202,0.0,0.0,63,0.00,CLR,,0.01,WeatherDisplay:10.37,2013-10-20 22:31:00,
2013-10-20 18:36:00,54.1,42.2,29.87,SSW,202,0.0,0.0,64,0.00,CLR,,0.01,WeatherDisplay:10.37,2013-10-20 22:36:00,
2013-10-20 18:41:00,53.8,41.9,29.87,SSW,202,0.0,0.0,64,0.00,CLR,,0.01,WeatherDisplay:10.37,2013-10-20 22:41:00,
2013-10-20 18:46:00,53.4,41.5,29.87,SSW,202,0.0,0.0,64,0.00,CLR,,0.01,WeatherDisplay:10.37,2013-10-20 22:46:00,
2013-10-20 18:51:00,53.2,41.4,29.88,SSW,202,0.0,0.0,64,0.00,CLR,,0.01,WeatherDisplay:10.37,2013-10-20 22:51:00,
2013-10-20 18:56:00,52.7,41.3,29.88,SSW,202,0.0,0.0,65,0.00,CLR,,0.01,WeatherDisplay:10.37,2013-10-20 22:56:00,
2013-10-20 19:01:00,52.3,41.3,29.88,SSW,202,0.0,0.0,66,0.00,CLR,,0.01,WeatherDisplay:10.37,2013-10-20 23:01:00,
2013-10-20 19:06:00,52.2,41.1,29.88,SSW,202,0.0,0.0,66,0.00,CLR,,0.01,WeatherDisplay:10.37,2013-10-20 23:06:00,
2013-10-20 19:11:00,51.8,40.8,29.88,SSW,202,0.0,0.0,66,0.00,CLR,,0.01,WeatherDisplay:10.37,2013-10-20 23:11:00,
2013-10-20 19:16:00,51.3,40.7,29.89,SSW,202,0.0,0.0,67,0.00,CLR,,0.01,WeatherDisplay:10.37,2013-10-20 23:16:00,
2013-10-20 19:21:00,50.7,40.5,29.88,SSW,202,0.0,0.0,68,0.00,CLR,,0.01,WeatherDisplay:10.37,2013-10-20 23:21:00,
2013-10-20 19:26:00,50.4,39.8,29.89,SSW,202,0.0,0.0,67,0.00,CLR,,0.01,WeatherDisplay:10.37,2013-10-20 23:26:00,
2013-10-20 19:31:00,50.0,39.8,29.89,SSW,202,0.0,0.0,68,0.00,CLR,,0.01,WeatherDisplay:10.37,2013-10-20 23:31:00,
2013-10-20 19:36:00,49.6,39.5,29.89,SSW,202,0.0,0.0,68,0.00,CLR,,0.01,WeatherDisplay:10.37,2013-10-20 23:36:00,
2013-10-20 19:41:00,49.3,39.2,29.89,SSW,202,0.0,0.0,68,0.00,CLR,,0.01,WeatherDisplay:10.37,2013-10-20 23:41:00,
2013-10-20 19:46:00,49.1,39.4,29.90,SSW,202,0.0,0.0,69,0.00,CLR,,0.01,WeatherDisplay:10.37,2013-10-20 23:46:00,
2013-10-20 19:51:00,48.7,39.4,29.90,SSW,202,0.0,0.0,70,0.00,CLR,,0.01,WeatherDisplay:10.37,2013-10-20 23:51:00,
2013-10-20 19:56:00,48.4,39.0,29.90,SSW,202,0.0,0.0,70,0.00,CLR,,0.01,WeatherDisplay:10.37,2013-10-20 23:56:00,
2013-10-20 20:01:00,48.2,38.9,29.90,SSW,202,0.0,0.0,70,0.00,CLR,,0.01,WeatherDisplay:10.37,2013-10-21 00:01:00,
2013-10-20 20:06:00,47.8,38.9,29.90,SSW,202,0.0,0.0,71,0.00,CLR,,0.01,WeatherDisplay:10.37,2013-10-21 00:06:00,
2013-10-20 20:11:00,47.5,38.5,29.90,SSW,202,0.0,0.0,71,0.00,CLR,,0.01,WeatherDisplay:10.37,2013-10-21 00:11:00,
2013-10-20 20:16:00,47.1,38.2,29.91,SSW,202,0.0,0.0,71,0.00,CLR,,0.01,WeatherDisplay:10.37,2013-10-21 00:16:00,
2013-10-20 20:21:00,46.9,38.4,29.91,SSW,202,0.0,0.0,72,0.00,CLR,,0.01,WeatherDisplay:10.37,2013-10-21 00:21:00,
2013-10-20 20:26:00,46.8,38.2,29.91,SSW,202,0.0,0.0,72,0.00,CLR,,0.01,WeatherDisplay:10.37,2013-10-21 00:26:00,
2013-10-20 20:31:00,46.6,38.0,29.91,SSW,202,0.0,0.0,72,0.00,CLR,,0.01,WeatherDisplay:10.37,2013-10-21 00:31:00,
2013-10-20 20:36:00,46.2,37.7,29.91,SSW,202,0.0,0.0,72,0.00,CLR,,0.01,WeatherDisplay:10.37,2013-10-21 00:36:00,
2013-10-20 20:41:00,46.0,37.9,29.91,SSW,202,0.0,0.0,73,0.00,CLR,,0.01,WeatherDisplay:10.37,2013-10-21 00:41:00,
2013-10-20 20:46:00,45.9,37.7,29.91,SSW,202,0.0,0.0,73,0.00,CLR,,0.01,WeatherDisplay:10.37,2013-10-21 00:46:00,
2013-10-20 20:51:00,45.7,37.5,29.91,SSE,158,0.0,0.0,73,0.00,CLR,,0.01,WeatherDisplay:10.37,2013-10-21 00:51:00,
2013-10-20 20:56:00,45.5,37.7,29.92,SSE,158,0.0,0.0,74,0.00,CLR,,0.01,WeatherDisplay:10.37,2013-10-21 00:56:00,
2013-10-20 21:01:00,45.3,37.5,29.92,SSE,158,0.0,0.0,74,0.00,CLR,,0.01,WeatherDisplay:10.37,2013-10-21 01:01:00,
2013-10-20 21:06:00,45.1,37.3,29.93,SSE,158,0.0,0.0,74,0.00,CLR,,0.01,WeatherDisplay:10.37,2013-10-21 01:06:00,
2013-10-20 21:11:00,45.0,37.2,29.93,SSE,158,0.0,0.0,74,0.00,CLR,,0.01,WeatherDisplay:10.37,2013-10-21 01:11:00,
2013-10-20 21:16:00,44.8,37.0,29.93,SSE,158,0.0,0.0,74,0.00,CLR,,0.01,WeatherDisplay:10.37,2013-10-21 01:16:00,
2013-10-20 21:21:00,44.6,36.8,29.93,South,180,0.0,0.0,74,0.00,CLR,,0.01,WeatherDisplay:10.37,2013-10-21 01:21:00,
2013-10-20 21:26:00,44.2,36.5,29.93,South,180,0.0,0.0,74,0.00,CLR,,0.01,WeatherDisplay:10.37,2013-10-21 01:26:00,
2013-10-20 21:31:00,44.2,36.5,29.93,South,180,0.0,0.0,74,0.00,CLR,,0.01,WeatherDisplay:10.37,2013-10-21 01:31:00,
2013-10-20 21:36:00,43.9,36.1,29.93,South,180,0.0,0.0,74,0.00,CLR,,0.01,WeatherDisplay:10.37,2013-10-21 01:36:00,
2013-10-20 21:41:00,43.9,36.5,29.93,South,180,0.0,0.0,75,0.00,CLR,,0.01,WeatherDisplay:10.37,2013-10-21 01:41:00,
2013-10-20 21:46:00,43.7,36.3,29.93,South,180,0.0,0.0,75,0.00,CLR,,0.01,WeatherDisplay:10.37,2013-10-21 01:46:00,
2013-10-20 21:51:00,43.5,36.1,29.94,South,180,0.0,0.0,75,0.00,CLR,,0.01,WeatherDisplay:10.37,2013-10-21 01:51:00,
2013-10-20 21:56:00,43.5,36.1,29.94,South,180,0.0,0.0,75,0.00,CLR,,0.01,WeatherDisplay:10.37,2013-10-21 01:56:00,
2013-10-20 22:01:00,43.3,36.3,29.94,South,180,0.0,0.0,76,0.00,CLR,,0.01,WeatherDisplay:10.37,2013-10-21 02:01:00,
2013-10-20 22:06:00,43.2,36.1,29.95,South,180,0.0,0.0,76,0.00,CLR,,0.01,WeatherDisplay:10.37,2013-10-21 02:06:00,
2013-10-20 22:11:00,42.8,35.8,29.95,South,180,0.0,0.0,76,0.00,CLR,,0.01,WeatherDisplay:10.37,2013-10-21 02:11:00,
2013-10-20 22:16:00,42.8,35.8,29.95,South,180,0.0,0.0,76,0.00,CLR,,0.01,WeatherDisplay:10.37,2013-10-21 02:16:00,
2013-10-20 22:21:00,42.4,35.7,29.95,South,180,0.0,0.0,77,0.00,CLR,,0.01,WeatherDisplay:10.37,2013-10-21 02:21:00,
2013-10-20 22:26:00,42.4,35.7,29.95,South,180,0.0,0.0,77,0.00,CLR,,0.01,WeatherDisplay:10.37,2013-10-21 02:26:00,
2013-10-20 22:31:00,42.3,35.6,29.95,South,180,0.0,0.0,77,0.00,CLR,,0.01,WeatherDisplay:10.37,2013-10-21 02:31:00,
2013-10-20 22:36:00,42.3,35.6,29.95,South,180,0.0,0.0,77,0.00,CLR,,0.01,WeatherDisplay:10.37,2013-10-21 02:36:00,
2013-10-20 22:41:00,42.1,35.4,29.95,South,180,0.0,0.0,77,0.00,CLR,,0.01,WeatherDisplay:10.37,2013-10-21 02:41:00,
2013-10-20 22:46:00,41.7,35.0,29.95,South,180,0.0,0.0,77,0.00,CLR,,0.01,WeatherDisplay:10.37,2013-10-21 02:46:00,
2013-10-20 22:51:00,41.5,34.9,29.95,South,180,0.0,0.0,77,0.00,CLR,,0.01,WeatherDisplay:10.37,2013-10-21 02:51:00,
2013-10-20 22:56:00,41.4,34.7,29.95,South,180,0.0,0.0,77,0.00,CLR,,0.01,WeatherDisplay:10.37,2013-10-21 02:56:00,
2013-10-20 23:01:00,41.4,35.0,29.95,South,180,0.0,0.0,78,0.00,CLR,,0.01,WeatherDisplay:10.37,2013-10-21 03:01:00,
2013-10-20 23:06:00,41.4,35.0,29.95,South,180,0.0,0.0,78,0.00,CLR,,0.01,WeatherDisplay:10.37,2013-10-21 03:06:00,
2013-10-20 23:11:00,41.4,35.0,29.95,South,180,0.0,0.0,78,0.00,CLR,,0.01,WeatherDisplay:10.37,2013-10-21 03:11:00,
2013-10-20 23:16:00,41.2,34.8,29.95,South,180,0.0,0.0,78,0.00,CLR,,0.01,WeatherDisplay:10.37,2013-10-21 03:16:00,
2013-10-20 23:21:00,41.2,35.2,29.95,South,180,0.0,0.0,79,0.00,CLR,,0.01,WeatherDisplay:10.37,2013-10-21 03:21:00,
2013-10-20 23:26:00,41.0,35.0,29.95,South,180,0.0,0.0,79,0.00,CLR,,0.01,WeatherDisplay:10.37,2013-10-21 03:26:00,
2013-10-20 23:31:00,40.8,34.8,29.96,South,180,0.0,0.0,79,0.00,CLR,,0.01,WeatherDisplay:10.37,2013-10-21 03:31:00,
2013-10-20 23:36:00,40.6,34.6,29.96,South,180,0.0,0.0,79,0.00,CLR,,0.01,WeatherDisplay:10.37,2013-10-21 03:36:00,
2013-10-20 23:41:00,40.6,34.6,29.96,South,180,0.0,0.0,79,0.00,CLR,,0.01,WeatherDisplay:10.37,2013-10-21 03:41:00,
2013-10-20 23:46:00,40.3,34.3,29.96,South,180,0.0,0.0,79,0.00,CLR,,0.01,WeatherDisplay:10.37,2013-10-21 03:46:00,
2013-10-20 23:51:00,40.3,34.3,29.96,South,180,0.0,0.0,79,0.00,CLR,,0.01,WeatherDisplay:10.37,2013-10-21 03:51:00,
2013-10-20 23:56:00,40.3,34.6,29.96,South,180,0.0,0.0,80,0.00,CLR,,0.01,WeatherDisplay:10.37,2013-10-21 03:56:00,